createdAt,value
2022-12-25T00:00:21.132Z,99427.11
2022-12-25T00:03:09.619Z,99430.88
2022-12-25T00:05:40.609Z,99437.56
2022-12-25T00:08:10.670Z,99439.63
2022-12-25T00:10:44.732Z,99443.86
2022-12-25T00:13:13.425Z,99444.70
2022-12-25T00:15:42.046Z,99442.90
2022-12-25T00:18:10.204Z,99446.01
2022-12-25T00:20:38.218Z,99447.70
2022-12-25T00:23:06.228Z,99454.54
2022-12-25T00:25:34.249Z,99455.60
2022-12-25T00:28:02.213Z,99463.73
2022-12-25T00:30:30.251Z,99470.27
2022-12-25T00:32:58.266Z,99475.08
2022-12-25T00:35:26.272Z,99477.61
2022-12-25T00:37:54.256Z,99475.22
2022-12-25T00:40:22.272Z,99477.95
2022-12-25T00:42:50.613Z,99479.30
2022-12-25T00:45:18.737Z,99484.30
2022-12-25T00:47:46.823Z,99486.17
2022-12-25T00:50:14.803Z,99488.91
2022-12-25T00:52:42.803Z,99493.81
2022-12-25T00:55:10.892Z,99493.63
2022-12-25T00:57:38.913Z,99493.05
2022-12-25T01:00:08.242Z,99495.83
2022-12-25T01:02:36.406Z,99496.86
2022-12-25T01:05:05.909Z,99499.77
2022-12-25T01:07:34.023Z,99504.83
2022-12-25T01:10:20.717Z,99504.94
2022-12-25T01:12:50.364Z,99513.23
2022-12-25T01:15:18.909Z,99519.44
2022-12-25T01:17:46.968Z,99524.09
2022-12-25T01:20:16.690Z,99528.02
2022-12-25T01:22:45.646Z,99528.38
2022-12-25T01:25:13.731Z,99529.02
2022-12-25T01:27:42.160Z,99533.55
2022-12-25T01:30:11.181Z,99533.15
2022-12-25T01:32:39.214Z,99528.27
2022-12-25T01:35:07.498Z,99523.70
2022-12-25T01:37:35.510Z,99528.17
2022-12-25T01:40:04.287Z,99530.29
2022-12-25T01:42:32.317Z,99543.92
2022-12-25T01:45:42.318Z,99554.43
2022-12-25T01:48:16.343Z,99554.08
2022-12-25T01:50:47.804Z,99558.70
2022-12-25T01:53:16.025Z,99555.60
2022-12-25T01:55:47.372Z,99557.04
2022-12-25T01:58:16.752Z,99554.61
2022-12-25T02:00:45.712Z,99554.07
2022-12-25T02:03:14.455Z,99554.34
2022-12-25T02:05:43.506Z,99554.64
2022-12-25T02:08:14.652Z,99555.83
2022-12-25T02:10:44.973Z,99554.14
2022-12-25T02:13:15.895Z,99554.96
2022-12-25T02:16:03.063Z,99561.11
2022-12-25T02:18:31.096Z,99565.02
2022-12-25T02:21:26.584Z,99570.84
2022-12-25T02:24:31.120Z,99574.34
2022-12-25T02:27:25.803Z,99572.05
2022-12-25T02:30:01.292Z,99570.09
2022-12-25T02:33:24.106Z,99570.75
2022-12-25T02:35:56.395Z,99570.90
2022-12-25T02:38:33.500Z,99569.32
2022-12-25T02:41:08.708Z,99575.49
2022-12-25T02:43:59.624Z,99580.13
2022-12-25T02:46:50.395Z,99583.91
2022-12-25T02:49:43.101Z,99583.88
2022-12-25T02:52:38.845Z,99590.08
2022-12-25T02:55:31.115Z,99599.42
2022-12-25T02:58:23.194Z,99598.60
2022-12-25T03:01:16.742Z,99595.11
2022-12-25T03:04:08.910Z,99600.45
2022-12-25T03:06:44.914Z,99600.42
2022-12-25T03:09:43.231Z,99601.77
2022-12-25T03:12:53.670Z,99604.42
2022-12-25T03:15:40.895Z,99609.01
2022-12-25T03:18:17.255Z,99616.27
2022-12-25T03:21:04.308Z,99624.02
2022-12-25T03:23:54.517Z,99625.60
2022-12-25T03:26:41.204Z,99621.23
2022-12-25T03:29:09.217Z,99619.05
2022-12-25T03:32:18.996Z,99622.02
2022-12-25T03:35:24.226Z,99620.24
2022-12-25T03:38:22.065Z,99616.77
2022-12-25T03:41:31.127Z,99620.22
2022-12-25T03:44:36.411Z,99627.13
2022-12-25T03:47:35.767Z,99628.96
2022-12-25T03:50:48.784Z,99622.36
2022-12-25T03:53:40.590Z,99632.05
2022-12-25T03:56:28.213Z,99629.58
2022-12-25T03:59:23.449Z,99630.14
2022-12-25T04:02:11.012Z,99632.48
2022-12-25T04:04:58.388Z,99639.80
2022-12-25T04:07:45.235Z,99633.89
2022-12-25T04:10:32.028Z,99627.80
2022-12-25T04:13:18.777Z,99632.25
2022-12-25T04:16:05.614Z,99641.82
2022-12-25T04:18:52.395Z,99651.46
2022-12-25T04:21:39.061Z,99650.50
2022-12-25T04:24:26.154Z,99646.54
2022-12-25T04:27:12.915Z,99651.80
2022-12-25T04:29:59.655Z,99645.55
2022-12-25T04:32:46.350Z,99647.59
2022-12-25T04:35:33.316Z,99645.42
2022-12-25T04:38:01.316Z,99639.01
2022-12-25T04:40:29.334Z,99639.65
2022-12-25T04:42:57.330Z,99642.17
2022-12-25T04:45:25.336Z,99645.90
2022-12-25T04:47:53.399Z,99647.56
2022-12-25T04:50:21.457Z,99653.10
2022-12-25T04:52:49.521Z,99661.63
2022-12-25T04:55:17.670Z,99661.06
2022-12-25T04:57:45.701Z,99662.20
2022-12-25T05:00:13.990Z,99663.33
2022-12-25T05:02:42.292Z,99667.27
2022-12-25T05:05:10.567Z,99670.54
2022-12-25T05:07:38.576Z,99674.79
2022-12-25T05:10:07.672Z,99679.44
2022-12-25T05:12:35.651Z,99676.42
2022-12-25T05:15:03.939Z,99679.35
2022-12-25T05:17:32.017Z,99676.18
2022-12-25T05:20:00.204Z,99677.88
2022-12-25T05:22:28.253Z,99686.30
2022-12-25T05:24:56.357Z,99680.27
2022-12-25T05:27:24.377Z,99684.71
2022-12-25T05:29:52.370Z,99691.80
2022-12-25T05:32:20.376Z,99688.66
2022-12-25T05:34:48.357Z,99692.14
2022-12-25T05:37:16.336Z,99698.95
2022-12-25T05:39:44.333Z,99696.89
2022-12-25T05:42:12.340Z,99694.16
2022-12-25T05:44:40.335Z,99698.82
2022-12-25T05:47:08.414Z,99700.52
2022-12-25T05:49:36.440Z,99703.77
2022-12-25T05:52:04.619Z,99706.30
2022-12-25T05:54:32.670Z,99710.13
2022-12-25T05:57:00.725Z,99713.08
2022-12-25T05:59:33.190Z,99714.84
2022-12-25T06:02:01.395Z,99716.55
2022-12-25T06:04:29.691Z,99715.69
2022-12-25T06:06:57.698Z,99719.34
2022-12-25T06:09:25.746Z,99717.07
2022-12-25T06:11:53.733Z,99717.35
2022-12-25T06:14:21.768Z,99727.70
2022-12-25T06:16:53.870Z,99731.31
2022-12-25T06:19:22.266Z,99731.14
2022-12-25T06:21:54.523Z,99729.21
2022-12-25T06:24:23.829Z,99727.16
2022-12-25T06:26:52.095Z,99731.86
2022-12-25T06:29:20.371Z,99735.23
2022-12-25T06:31:48.399Z,99734.40
2022-12-25T06:34:16.725Z,99734.98
2022-12-25T06:36:44.726Z,99745.73
2022-12-25T06:39:12.746Z,99749.21
2022-12-25T06:41:40.765Z,99751.77
2022-12-25T06:44:09.037Z,99755.98
2022-12-25T06:46:37.021Z,99761.04
2022-12-25T06:49:05.160Z,99768.63
2022-12-25T06:51:34.303Z,99768.91
2022-12-25T06:54:06.112Z,99772.77
2022-12-25T06:56:34.832Z,99775.65
2022-12-25T06:59:05.756Z,99777.84
2022-12-25T07:01:47.751Z,99781.42
2022-12-25T07:04:27.910Z,99787.02
2022-12-25T07:06:55.921Z,99795.66
2022-12-25T07:09:23.981Z,99799.16
2022-12-25T07:11:52.853Z,99801.88
2022-12-25T07:14:24.460Z,99801.77
2022-12-25T07:16:52.918Z,99810.48
2022-12-25T07:19:21.055Z,99810.58
2022-12-25T07:21:49.082Z,99816.66
2022-12-25T07:24:21.181Z,99824.23
2022-12-25T07:26:50.980Z,99830.85
2022-12-25T07:29:19.891Z,99828.35
2022-12-25T07:31:48.077Z,99826.79
2022-12-25T07:34:19.958Z,99833.39
2022-12-25T07:36:48.002Z,99836.65
2022-12-25T07:39:17.053Z,99844.48
2022-12-25T07:41:45.108Z,99841.17
2022-12-25T07:44:16.396Z,99844.50
2022-12-25T07:46:44.460Z,99849.14
2022-12-25T07:49:12.707Z,99854.71
2022-12-25T07:51:40.819Z,99857.30
2022-12-25T07:54:08.910Z,99859.77
2022-12-25T07:56:36.975Z,99861.83
2022-12-25T07:59:04.998Z,99865.11
2022-12-25T08:01:33.270Z,99865.63
2022-12-25T08:04:02.713Z,99871.04
2022-12-25T08:06:33.543Z,99872.63
2022-12-25T08:09:13.206Z,99874.23
2022-12-25T08:11:46.978Z,99875.25
2022-12-25T08:14:15.297Z,99880.98
2022-12-25T08:16:43.543Z,99882.74
2022-12-25T08:19:11.881Z,99887.50
2022-12-25T08:21:39.913Z,99882.94
2022-12-25T08:24:08.005Z,99891.59
2022-12-25T08:26:36.038Z,99893.84
2022-12-25T08:29:04.057Z,99892.60
2022-12-25T08:31:37.260Z,99892.98
2022-12-25T08:34:07.715Z,99892.73
2022-12-25T08:36:35.861Z,99895.05
2022-12-25T08:39:05.711Z,99900.80
2022-12-25T08:41:36.604Z,99906.73
2022-12-25T08:44:05.643Z,99907.63
2022-12-25T08:46:33.772Z,99905.94
2022-12-25T08:49:01.796Z,99909.20
2022-12-25T08:51:29.828Z,99914.59
2022-12-25T08:54:01.411Z,99911.93
2022-12-25T08:56:29.606Z,99908.59
2022-12-25T08:58:57.719Z,99906.58
2022-12-25T09:01:25.919Z,99911.83
2022-12-25T09:03:54.112Z,99911.67
2022-12-25T09:06:22.175Z,99907.73
2022-12-25T09:08:50.369Z,99910.64
2022-12-25T09:11:20.252Z,99908.41
2022-12-25T09:13:48.961Z,99904.62
2022-12-25T09:16:22.128Z,99901.59
2022-12-25T09:18:50.999Z,99897.75
2022-12-25T09:21:19.704Z,99895.16
2022-12-25T09:23:47.735Z,99896.40
2022-12-25T09:26:17.919Z,99897.53
2022-12-25T09:28:51.341Z,99903.14
2022-12-25T09:31:22.791Z,99910.41
2022-12-25T09:33:51.997Z,99918.71
2022-12-25T09:36:23.569Z,99924.55
2022-12-25T09:38:52.993Z,99934.65
2022-12-25T09:41:24.001Z,99937.95
2022-12-25T09:43:59.816Z,99943.15
2022-12-25T09:46:37.098Z,99949.51
2022-12-25T09:49:28.481Z,99952.63
2022-12-25T09:52:06.702Z,99955.33
2022-12-25T09:54:56.679Z,99959.17
2022-12-25T09:57:25.794Z,99968.91
2022-12-25T09:59:56.944Z,99965.53
2022-12-25T10:02:28.154Z,99965.20
2022-12-25T10:05:12.244Z,99961.41
2022-12-25T10:07:44.501Z,99959.61
2022-12-25T10:10:35.613Z,99965.68
2022-12-25T10:13:03.591Z,99966.03
2022-12-25T10:15:59.556Z,99967.06
2022-12-25T10:18:50.437Z,99971.56
2022-12-25T10:21:19.902Z,99971.54
2022-12-25T10:24:14.167Z,99971.95
2022-12-25T10:26:43.111Z,99970.06
2022-12-25T10:29:19.848Z,99975.21
2022-12-25T10:31:52.022Z,99975.01
2022-12-25T10:34:20.043Z,99985.05
2022-12-25T10:36:48.453Z,99993.49
2022-12-25T10:39:18.922Z,99989.25
2022-12-25T10:42:08.767Z,99995.52
2022-12-25T10:44:36.815Z,99993.38
2022-12-25T10:47:05.610Z,99995.79
2022-12-25T10:49:39.048Z,99994.93
2022-12-25T10:52:21.609Z,99997.50
2022-12-25T10:54:49.983Z,99989.91
2022-12-25T10:57:21.979Z,99990.07
2022-12-25T10:59:58.356Z,99992.29
2022-12-25T11:02:40.812Z,99995.41
2022-12-25T11:05:32.111Z,99989.27
2022-12-25T11:08:02.469Z,99981.74
2022-12-25T11:10:44.053Z,99975.16
2022-12-25T11:13:24.486Z,99959.55
2022-12-25T11:16:04.669Z,99959.90
2022-12-25T11:18:43.936Z,99959.36
2022-12-25T11:21:37.165Z,99949.87
2022-12-25T11:24:17.956Z,99945.11
2022-12-25T11:26:55.686Z,99942.41
2022-12-25T11:29:38.054Z,99942.15
2022-12-25T11:32:16.397Z,99938.48
2022-12-25T11:34:47.393Z,99936.45
2022-12-25T11:37:40.801Z,99934.36
2022-12-25T11:40:26.572Z,99933.53
2022-12-25T11:43:04.124Z,99929.98
2022-12-25T11:45:39.564Z,99930.73
2022-12-25T11:48:19.678Z,99922.53
2022-12-25T11:50:55.863Z,99916.64
2022-12-25T11:53:40.134Z,99919.87
2022-12-25T11:56:12.225Z,99913.91
2022-12-25T11:59:18.048Z,99909.70
2022-12-25T12:01:51.226Z,99911.62
2022-12-25T12:04:27.596Z,99912.94
2022-12-25T12:07:08.944Z,99913.00
2022-12-25T12:09:48.559Z,99914.50
2022-12-25T12:12:46.793Z,99912.53
2022-12-25T12:15:31.134Z,99920.11
2022-12-25T12:18:21.359Z,99925.13
2022-12-25T12:21:21.350Z,99922.23
2022-12-25T12:23:55.619Z,99913.64
2022-12-25T12:26:26.168Z,99910.31
2022-12-25T12:28:58.123Z,99910.70
2022-12-25T12:31:36.586Z,99908.67
2022-12-25T12:34:05.624Z,99912.47
2022-12-25T12:36:36.608Z,99910.09
2022-12-25T12:39:06.169Z,99915.15
2022-12-25T12:41:46.474Z,99916.34
2022-12-25T12:44:17.484Z,99913.80
2022-12-25T12:46:54.630Z,99919.30
2022-12-25T12:49:33.794Z,99921.13
2022-12-25T12:52:25.530Z,99920.32
2022-12-25T12:55:04.007Z,99921.02
2022-12-25T12:57:39.355Z,99928.20
2022-12-25T13:00:16.119Z,99931.52
2022-12-25T13:03:05.405Z,99931.27
2022-12-25T13:05:48.324Z,99937.43
2022-12-25T13:08:43.532Z,99938.08
2022-12-25T13:11:44.440Z,99935.79
2022-12-25T13:14:17.535Z,99938.76
2022-12-25T13:16:48.169Z,99937.41
2022-12-25T13:19:22.018Z,99930.48
2022-12-25T13:22:15.156Z,99927.89
2022-12-25T13:24:43.141Z,99926.95
2022-12-25T13:27:26.289Z,99925.20
2022-12-25T13:29:54.394Z,99924.95
2022-12-25T13:32:32.447Z,99928.76
2022-12-25T13:35:01.050Z,99925.74
2022-12-25T13:37:31.695Z,99931.02
2022-12-25T13:40:03.837Z,99943.09
2022-12-25T13:42:37.968Z,99941.48
2022-12-25T13:45:13.459Z,99941.05
2022-12-25T13:47:43.303Z,99944.95
2022-12-25T13:50:25.458Z,99946.27
2022-12-25T13:52:57.585Z,99949.34
2022-12-25T13:55:30.647Z,99948.40
2022-12-25T13:58:02.309Z,99950.39
2022-12-25T14:00:45.221Z,99953.05
2022-12-25T14:03:23.990Z,99959.93
2022-12-25T14:06:15.362Z,99960.64
2022-12-25T14:08:44.675Z,99954.94
2022-12-25T14:11:15.995Z,99959.83
2022-12-25T14:13:46.280Z,99962.50
2022-12-25T14:16:19.566Z,99962.94
2022-12-25T14:18:53.617Z,99957.62
2022-12-25T14:21:28.065Z,99954.73
2022-12-25T14:23:56.486Z,99945.27
2022-12-25T14:26:34.178Z,99945.88
2022-12-25T14:29:05.015Z,99941.98
2022-12-25T14:31:33.896Z,99946.40
2022-12-25T14:34:04.689Z,99952.33
2022-12-25T14:36:34.002Z,99952.58
2022-12-25T14:39:05.608Z,99952.32
2022-12-25T14:41:41.297Z,99943.70
2022-12-25T14:44:28.030Z,99939.35
2022-12-25T14:47:13.412Z,99939.08
2022-12-25T14:49:41.971Z,99933.64
2022-12-25T14:52:37.894Z,99926.09
2022-12-25T14:55:08.942Z,99919.41
2022-12-25T14:57:41.208Z,99921.29
2022-12-25T15:00:21.473Z,99922.95
2022-12-25T15:02:51.651Z,99928.98
2022-12-25T15:05:27.069Z,99933.27
2022-12-25T15:08:13.227Z,99938.59
2022-12-25T15:13:30.871Z,99950.80
2022-12-25T15:16:12.356Z,99949.72
2022-12-25T15:18:43.639Z,99941.59
2022-12-25T15:21:28.773Z,99942.27
2022-12-25T15:23:58.812Z,99943.70
2022-12-25T15:26:28.695Z,99944.98
2022-12-25T15:28:57.291Z,99945.83
2022-12-25T15:31:28.148Z,99937.92
2022-12-25T15:33:58.921Z,99929.20
2022-12-25T15:36:28.052Z,99924.24
2022-12-25T15:38:56.183Z,99917.21
2022-12-25T15:41:49.493Z,99918.81
2022-12-25T15:44:18.208Z,99924.19
2022-12-25T15:46:46.789Z,99932.03
2022-12-25T15:49:16.110Z,99935.05
2022-12-25T15:51:44.936Z,99939.89
2022-12-25T15:54:13.250Z,99947.14
2022-12-25T15:56:54.218Z,99955.04
2022-12-25T15:59:23.182Z,99958.49
2022-12-25T16:01:56.784Z,99961.38
2022-12-25T16:04:26.825Z,99970.01
2022-12-25T16:06:58.572Z,99971.88
2022-12-25T16:09:27.776Z,99969.50
2022-12-25T16:11:55.790Z,99967.55
2022-12-25T16:14:23.791Z,99964.80
2022-12-25T16:16:51.781Z,99962.25
2022-12-25T16:19:19.812Z,99969.65
2022-12-25T16:21:47.920Z,99973.95
2022-12-25T16:24:16.727Z,99973.09
2022-12-25T16:26:44.771Z,99969.36
2022-12-25T16:29:12.879Z,99971.63
2022-12-25T16:31:41.564Z,99973.33
2022-12-25T16:34:10.342Z,99970.41
2022-12-25T16:36:38.421Z,99962.50
2022-12-25T16:39:06.476Z,99958.06
2022-12-25T16:41:34.682Z,99953.98
2022-12-25T16:44:09.648Z,99942.67
2022-12-25T16:46:39.695Z,99936.44
2022-12-25T16:49:07.860Z,99936.80
2022-12-25T16:51:35.876Z,99936.46
2022-12-25T16:54:04.042Z,99937.80
2022-12-25T16:56:32.571Z,99930.50
2022-12-25T16:59:01.195Z,99923.75
2022-12-25T17:01:29.875Z,99916.86
2022-12-25T17:04:01.789Z,99907.47
2022-12-25T17:06:29.999Z,99892.29
2022-12-25T17:09:00.350Z,99889.41
2022-12-25T17:11:30.385Z,99892.41
2022-12-25T17:14:04.515Z,99894.29
2022-12-25T17:16:37.411Z,99898.19
2022-12-25T17:19:19.527Z,99899.84
2022-12-25T17:21:47.685Z,99898.67
2022-12-25T17:24:16.244Z,99885.90
2022-12-25T17:26:44.916Z,99878.49
2022-12-25T17:29:19.986Z,99885.85
2022-12-25T17:31:50.884Z,99894.73
2022-12-25T17:34:19.327Z,99897.34
2022-12-25T17:36:47.806Z,99889.05
2022-12-25T17:39:15.992Z,99884.23
2022-12-25T17:41:43.996Z,99880.27
2022-12-25T17:44:12.054Z,99873.90
2022-12-25T17:46:40.202Z,99869.84
2022-12-25T17:49:15.259Z,99874.59
2022-12-25T17:51:43.591Z,99878.94
2022-12-25T17:54:12.043Z,99873.52
2022-12-25T17:56:40.233Z,99864.61
2022-12-25T17:59:10.590Z,99855.02
2022-12-25T18:01:40.188Z,99849.91
2022-12-25T18:04:08.505Z,99859.23
2022-12-25T18:06:37.401Z,99856.05
2022-12-25T18:09:06.952Z,99859.30
2022-12-25T18:11:39.819Z,99867.02
2022-12-25T18:14:11.514Z,99878.05
2022-12-25T18:16:42.270Z,99885.26
2022-12-25T18:19:11.950Z,99879.48
2022-12-25T18:21:40.125Z,99881.20
2022-12-25T18:24:09.307Z,99874.25
2022-12-25T18:26:37.440Z,99869.69
2022-12-25T18:29:07.094Z,99866.88
2022-12-25T18:31:36.153Z,99862.30
2022-12-25T18:34:05.206Z,99854.15
2022-12-25T18:36:33.363Z,99856.86
2022-12-25T18:39:01.469Z,99855.90
2022-12-25T18:41:30.426Z,99856.89
2022-12-25T18:44:00.192Z,99854.28
2022-12-25T18:46:28.665Z,99864.61
2022-12-25T18:48:57.777Z,99861.44
2022-12-25T18:51:29.931Z,99852.92
2022-12-25T18:54:01.834Z,99853.91
2022-12-25T18:56:29.845Z,99858.21
2022-12-25T18:58:59.968Z,99861.48
2022-12-25T19:01:28.228Z,99863.70
2022-12-25T19:04:04.103Z,99861.76
2022-12-25T19:06:35.187Z,99861.71
2022-12-25T19:09:09.216Z,99858.73
2022-12-25T19:11:45.868Z,99856.30
2022-12-25T19:14:15.579Z,99856.74
2022-12-25T19:16:44.604Z,99859.14
2022-12-25T19:19:14.206Z,99856.30
2022-12-25T19:21:42.234Z,99854.38
2022-12-25T19:24:10.357Z,99851.54
2022-12-25T19:26:40.756Z,99857.18
2022-12-25T19:29:08.894Z,99865.33
2022-12-25T19:31:38.374Z,99863.33
2022-12-25T19:34:07.233Z,99849.27
2022-12-25T19:36:35.711Z,99844.95
2022-12-25T19:39:05.722Z,99847.33
2022-12-25T19:41:34.851Z,99851.61
2022-12-25T19:44:03.500Z,99848.02
2022-12-25T19:46:34.680Z,99838.31
2022-12-25T19:49:06.408Z,99836.33
2022-12-25T19:51:36.671Z,99827.61
2022-12-25T19:54:06.031Z,99821.45
2022-12-25T19:56:34.818Z,99818.59
2022-12-25T19:59:03.158Z,99817.81
2022-12-25T20:01:31.641Z,99820.19
2022-12-25T20:04:00.359Z,99815.46
2022-12-25T20:06:32.104Z,99819.42
2022-12-25T20:09:07.264Z,99815.17
2022-12-25T20:11:36.275Z,99812.13
2022-12-25T20:14:06.158Z,99821.61
2022-12-25T20:16:37.707Z,99831.34
2022-12-25T20:19:06.879Z,99823.27
2022-12-25T20:21:35.117Z,99815.56
2022-12-25T20:24:03.680Z,99809.64
2022-12-25T20:26:32.288Z,99809.31
2022-12-25T20:29:00.456Z,99799.38
2022-12-25T20:31:34.400Z,99791.88
2022-12-25T20:34:11.406Z,99787.18
2022-12-25T20:36:39.804Z,99776.48
2022-12-25T20:39:10.158Z,99773.46
2022-12-25T20:41:39.740Z,99774.52
2022-12-25T20:44:10.309Z,99775.33
2022-12-25T20:46:38.995Z,99770.14
2022-12-25T20:49:07.111Z,99766.01
2022-12-25T20:51:35.766Z,99766.70
2022-12-25T20:54:09.425Z,99765.70
2022-12-25T20:56:37.602Z,99759.03
2022-12-25T20:59:05.734Z,99755.46
2022-12-25T21:01:33.850Z,99758.36
2022-12-25T21:04:02.168Z,99753.80
2022-12-25T21:06:30.363Z,99758.18
2022-12-25T21:08:58.416Z,99762.25
2022-12-25T21:11:27.240Z,99762.52
2022-12-25T21:13:55.339Z,99760.95
2022-12-25T21:16:24.444Z,99766.20
2022-12-25T21:18:53.980Z,99767.70
2022-12-25T21:21:22.421Z,99770.25
2022-12-25T21:23:51.082Z,99764.70
2022-12-25T21:26:26.935Z,99760.33
2022-12-25T21:28:57.633Z,99753.88
2022-12-25T21:31:26.553Z,99744.52
2022-12-25T21:33:56.055Z,99741.67
2022-12-25T21:36:31.222Z,99737.23
2022-12-25T21:39:02.276Z,99736.27
2022-12-25T21:41:32.055Z,99738.55
2022-12-25T21:44:01.139Z,99736.03
2022-12-25T21:46:29.629Z,99730.02
2022-12-25T21:48:58.838Z,99729.82
2022-12-25T21:51:48.533Z,99723.84
2022-12-25T21:54:17.808Z,99715.16
2022-12-25T21:56:47.508Z,99715.84
2022-12-25T21:59:21.364Z,99714.76
2022-12-25T22:01:51.737Z,99712.10
2022-12-25T22:04:22.275Z,99707.31
2022-12-25T22:07:09.447Z,99706.03
2022-12-25T22:09:37.891Z,99708.10
2022-12-25T22:12:31.935Z,99698.05
2022-12-25T22:15:06.790Z,99686.39
2022-12-25T22:17:58.581Z,99678.75
2022-12-25T22:20:30.780Z,99674.30
2022-12-25T22:22:58.857Z,99671.63
2022-12-25T22:25:26.988Z,99670.88
2022-12-25T22:27:55.650Z,99669.95
2022-12-25T22:30:28.368Z,99669.16
2022-12-25T22:32:57.032Z,99663.57
2022-12-25T22:35:25.227Z,99659.70
2022-12-25T22:37:54.219Z,99663.95
2022-12-25T22:40:22.489Z,99661.71
2022-12-25T22:42:54.868Z,99666.42
2022-12-25T22:45:23.967Z,99666.83
2022-12-25T22:47:52.036Z,99666.79
2022-12-25T22:50:20.187Z,99666.42
2022-12-25T22:52:48.194Z,99660.67
2022-12-25T22:55:19.205Z,99653.76
2022-12-25T22:57:47.436Z,99651.95
2022-12-25T23:00:15.592Z,99655.20
2022-12-25T23:02:43.740Z,99637.82
2022-12-25T23:05:12.131Z,99635.52
2022-12-25T23:07:40.695Z,99634.85
2022-12-25T23:10:10.695Z,99640.27
2022-12-25T23:12:57.217Z,99640.38
2022-12-25T23:15:26.111Z,99627.86
2022-12-25T23:18:12.810Z,99626.52
2022-12-25T23:20:59.684Z,99623.66
2022-12-25T23:23:46.344Z,99628.73
2022-12-25T23:26:14.953Z,99615.32
2022-12-25T23:29:02.567Z,99614.79
2022-12-25T23:31:37.148Z,99614.24
2022-12-25T23:34:06.345Z,99608.86
2022-12-25T23:36:34.489Z,99606.78
2022-12-25T23:39:09.534Z,99606.88
2022-12-25T23:41:40.944Z,99599.15
2022-12-25T23:44:11.143Z,99607.61
2022-12-25T23:46:40.396Z,99597.24
2022-12-25T23:49:09.857Z,99604.02
2022-12-25T23:51:43.337Z,99602.33
2022-12-25T23:54:14.537Z,99605.32
2022-12-25T23:56:43.400Z,99604.21
2022-12-25T23:59:12.778Z,99600.00
